Echelon, New Jersey
Current Conditions -  °F | °C
As of 1:54 PM on Tuesday 21 Oct 2014 (Local Time) from KVAY Reporting Station
Few Clouds Few Clouds  
Wind Chill: 67°   Ceiling: Unl
Heat Index: 67°   Visibility: 10mi
Dew Point: 49°   Wind: 0mph
Humidity: 52%   Direction: NA
Pressure: 29.81"   Gusts: NA
Location:  39.8445°N, 74.9532°W
Report Text: KVAY 211754Z AUTO 00000KT 10SM FEW100 19/09 A2981 RMK AO2 LTG DSNT SE SLP095 T01940094 10194 20089 58021
Loading
Personal Weather Stations






























Interactive Weather Map
Tropical Storm Tracking
New forecast layout! Learn more

10-Day Weather Forecast

Advertisements
Track Severe Weather on mobile